createdAt,value
2018-10-12T00:01:53.233Z,17.10
2018-10-12T00:04:21.114Z,18.93
2018-10-12T00:06:49.022Z,19.77
2018-10-12T00:09:16.901Z,16.13
2018-10-12T00:11:44.802Z,18.33
2018-10-12T00:14:12.706Z,14.60
2018-10-12T00:16:40.598Z,16.97
2018-10-12T00:19:08.483Z,14.10
2018-10-12T00:21:36.403Z,16.70
2018-10-12T00:24:04.302Z,12.50
2018-10-12T00:26:32.217Z,15.03
2018-10-12T00:29:00.115Z,18.80
2018-10-12T00:31:28.009Z,18.17
2018-10-12T00:33:55.930Z,13.00
2018-10-12T00:36:23.827Z,16.53
2018-10-12T00:38:51.834Z,16.43
2018-10-12T00:41:20.187Z,17.73
2018-10-12T00:43:48.076Z,20.07
2018-10-12T00:46:16.003Z,15.37
2018-10-12T00:48:43.960Z,16.43
2018-10-12T00:51:11.915Z,15.67
2018-10-12T00:53:39.831Z,15.43
2018-10-12T00:56:07.919Z,15.50
2018-10-12T00:58:35.835Z,15.30
2018-10-12T01:01:03.730Z,16.23
2018-10-12T01:03:31.633Z,20.60
2018-10-12T01:05:59.542Z,16.83
2018-10-12T01:08:27.452Z,14.70
2018-10-12T01:10:55.371Z,15.87
2018-10-12T01:13:23.262Z,13.57
2018-10-12T01:15:51.170Z,14.40
2018-10-12T01:18:19.074Z,17.37
2018-10-12T01:20:46.986Z,20.53
2018-10-12T01:23:14.899Z,18.57
2018-10-12T01:25:42.813Z,16.63
2018-10-12T01:28:10.722Z,14.00
2018-10-12T01:30:38.649Z,14.53
2018-10-12T01:33:07.196Z,14.03
2018-10-12T01:35:35.389Z,16.33
2018-10-12T01:38:03.317Z,19.07
2018-10-12T01:40:31.874Z,18.33
2018-10-12T01:43:00.090Z,15.40
2018-10-12T01:45:28.007Z,16.10
2018-10-12T01:47:55.963Z,16.20
2018-10-12T01:50:23.850Z,14.00
2018-10-12T01:52:51.770Z,18.13
2018-10-12T01:55:19.690Z,18.73
2018-10-12T01:57:47.586Z,19.37
2018-10-12T02:00:15.504Z,19.17
2018-10-12T02:02:43.393Z,17.67
2018-10-12T02:05:11.303Z,16.43
2018-10-12T02:07:39.368Z,19.53
2018-10-12T02:10:07.396Z,16.70
2018-10-12T02:12:35.258Z,17.03
2018-10-12T02:15:03.198Z,16.20
2018-10-12T02:17:31.109Z,17.50
2018-10-12T02:19:59.107Z,18.23
2018-10-12T02:22:27.041Z,16.57
2018-10-12T02:24:54.973Z,18.53
2018-10-12T02:27:22.864Z,22.23
2018-10-12T02:29:50.765Z,19.83
2018-10-12T02:32:18.695Z,18.37
2018-10-12T02:34:46.614Z,19.93
2018-10-12T02:37:14.540Z,16.57
2018-10-12T02:39:42.445Z,16.90
2018-10-12T02:42:10.326Z,15.10
2018-10-12T02:44:38.243Z,14.07
2018-10-12T02:47:06.174Z,16.73
2018-10-12T02:49:34.066Z,14.37
2018-10-12T02:52:01.982Z,14.60
2018-10-12T02:54:29.901Z,14.87
2018-10-12T02:56:57.794Z,15.10
2018-10-12T02:59:25.693Z,21.73
2018-10-12T03:01:53.607Z,15.63
2018-10-12T03:04:21.497Z,15.03
2018-10-12T03:06:49.378Z,16.63
2018-10-12T03:09:17.292Z,16.57
2018-10-12T03:11:45.187Z,15.53
2018-10-12T03:14:13.074Z,18.43
2018-10-12T03:16:40.987Z,20.07
2018-10-12T03:19:08.940Z,16.00
2018-10-12T03:21:36.822Z,16.87
2018-10-12T03:24:04.710Z,14.67
2018-10-12T03:26:32.630Z,14.80
2018-10-12T03:29:00.527Z,13.83
2018-10-12T03:31:28.438Z,14.87
2018-10-12T03:33:56.353Z,14.47
2018-10-12T03:36:24.874Z,15.87
2018-10-12T03:38:52.771Z,14.97
2018-10-12T03:41:20.758Z,15.20
2018-10-12T03:43:48.655Z,14.40
2018-10-12T03:46:16.566Z,13.57
2018-10-12T03:48:44.479Z,12.07
2018-10-12T03:51:12.370Z,12.77
2018-10-12T03:53:40.275Z,13.13
2018-10-12T03:56:08.191Z,10.73
2018-10-12T03:58:36.113Z,12.27
2018-10-12T04:01:03.996Z,11.63
2018-10-12T04:03:31.911Z,10.97
2018-10-12T04:05:59.815Z,9.67
2018-10-12T04:08:27.792Z,10.73
2018-10-12T04:10:55.675Z,11.43
2018-10-12T04:13:23.592Z,10.87
2018-10-12T04:15:51.476Z,9.67
2018-10-12T04:18:19.359Z,14.00
2018-10-12T04:20:47.254Z,11.10
2018-10-12T04:23:15.168Z,10.60
2018-10-12T04:25:43.075Z,9.70
2018-10-12T04:28:11.025Z,11.27
2018-10-12T04:30:38.913Z,12.57
2018-10-12T04:33:06.839Z,12.80
2018-10-12T04:35:34.738Z,12.00
2018-10-12T04:38:02.660Z,11.90
2018-10-12T04:41:15.294Z,14.47
2018-10-12T04:43:43.620Z,13.20
2018-10-12T04:46:14.890Z,14.23
2018-10-12T04:48:43.768Z,11.27
2018-10-12T04:51:15.398Z,15.27
2018-10-12T04:53:43.333Z,13.33
2018-10-12T04:56:12.707Z,14.17
2018-10-12T04:58:41.333Z,11.27
2018-10-12T05:01:09.526Z,12.47
2018-10-12T05:03:37.367Z,11.43
2018-10-12T05:06:05.807Z,12.17
2018-10-12T05:08:34.204Z,12.73
2018-10-12T05:11:02.123Z,12.47
2018-10-12T05:13:30.573Z,14.23
2018-10-12T05:15:58.540Z,11.93
2018-10-12T05:18:26.447Z,10.87
2018-10-12T05:20:54.517Z,14.00
2018-10-12T05:23:22.362Z,11.80
2018-10-12T05:25:50.262Z,11.93
2018-10-12T05:28:18.167Z,10.27
2018-10-12T05:30:46.181Z,11.17
2018-10-12T05:33:14.099Z,11.40
2018-10-12T05:35:42.075Z,11.77
2018-10-12T05:38:09.962Z,11.40
2018-10-12T05:40:37.863Z,11.73
2018-10-12T05:43:05.861Z,11.97
2018-10-12T05:45:33.741Z,13.63
2018-10-12T05:48:13.115Z,14.40
2018-10-12T05:50:41.011Z,11.80
2018-10-12T05:53:08.908Z,13.63
2018-10-12T05:55:37.015Z,10.40
2018-10-12T05:58:05.274Z,13.03
2018-10-12T06:00:33.159Z,12.17
2018-10-12T06:03:01.054Z,11.03
2018-10-12T06:05:28.943Z,12.77
2018-10-12T06:07:56.835Z,16.17
2018-10-12T06:10:24.763Z,13.00
2018-10-12T06:12:52.642Z,12.13
2018-10-12T06:15:20.568Z,12.43
2018-10-12T06:17:48.446Z,13.80
2018-10-12T06:20:16.346Z,14.63
2018-10-12T06:22:44.251Z,17.10
2018-10-12T06:25:12.167Z,11.93
2018-10-12T06:27:40.057Z,13.97
2018-10-12T06:30:08.262Z,10.83
2018-10-12T06:32:36.154Z,12.40
2018-10-12T06:35:04.091Z,10.43
2018-10-12T06:37:32.007Z,11.20
2018-10-12T06:39:59.920Z,11.17
2018-10-12T06:42:27.849Z,10.30
2018-10-12T06:44:55.724Z,9.97
2018-10-12T06:47:23.697Z,13.30
2018-10-12T06:49:51.577Z,11.70
2018-10-12T06:52:19.487Z,12.77
2018-10-12T06:54:47.376Z,15.80
2018-10-12T06:57:15.287Z,10.90
2018-10-12T06:59:43.248Z,14.97
2018-10-12T07:02:14.724Z,10.97
2018-10-12T07:04:42.648Z,13.33
2018-10-12T07:07:10.540Z,11.67
2018-10-12T07:09:38.463Z,14.00
2018-10-12T07:12:06.449Z,12.07
2018-10-12T07:14:35.063Z,11.20
2018-10-12T07:17:03.078Z,8.83
2018-10-12T07:19:31.088Z,11.60
2018-10-12T07:21:58.988Z,9.57
2018-10-12T07:24:26.902Z,8.20
2018-10-12T07:26:54.785Z,9.50
2018-10-12T07:29:22.678Z,8.17
2018-10-12T07:31:50.619Z,9.93
2018-10-12T07:34:18.755Z,9.93
2018-10-12T07:36:46.857Z,11.33
2018-10-12T07:39:14.885Z,13.20
2018-10-12T07:41:42.630Z,12.07
2018-10-12T07:44:10.544Z,9.03
2018-10-12T07:46:38.516Z,10.77
2018-10-12T07:49:06.499Z,11.17
2018-10-12T07:51:34.395Z,9.27
2018-10-12T07:54:02.325Z,8.53
2018-10-12T07:56:30.238Z,10.03
2018-10-12T07:58:58.134Z,9.10
2018-10-12T08:01:26.140Z,12.43
2018-10-12T08:03:54.056Z,12.97
2018-10-12T08:06:22.117Z,11.60
2018-10-12T08:08:49.911Z,9.53
2018-10-12T08:11:17.827Z,17.30
2018-10-12T08:13:45.858Z,26.47
2018-10-12T08:16:13.658Z,9.20
2018-10-12T08:18:42.316Z,10.17
2018-10-12T08:21:10.226Z,9.23
2018-10-12T08:23:38.139Z,7.97
2018-10-12T08:26:06.184Z,12.47
2018-10-12T08:28:34.106Z,12.07
2018-10-12T08:31:02.010Z,7.97
2018-10-12T08:33:29.936Z,10.77
2018-10-12T08:35:57.837Z,12.23
2018-10-12T08:38:25.761Z,7.30
2018-10-12T08:40:53.675Z,9.43
2018-10-12T08:43:21.682Z,9.33
2018-10-12T08:45:49.577Z,9.23
2018-10-12T08:48:17.478Z,10.40
2018-10-12T08:50:45.426Z,6.83
2018-10-12T08:53:13.371Z,9.07
2018-10-12T08:55:41.309Z,7.03
2018-10-12T08:58:09.132Z,11.63
2018-10-12T09:00:37.049Z,9.13
2018-10-12T09:03:04.973Z,7.20
2018-10-12T09:05:32.833Z,8.83
2018-10-12T09:08:00.728Z,8.87
2018-10-12T09:10:28.626Z,8.43
2018-10-12T09:12:56.531Z,7.23
2018-10-12T09:15:24.432Z,8.73
2018-10-12T09:17:52.339Z,8.37
2018-10-12T09:20:20.335Z,9.00
2018-10-12T09:22:48.163Z,6.77
2018-10-12T09:25:16.063Z,5.30
2018-10-12T09:27:43.979Z,6.37
2018-10-12T09:30:11.918Z,7.67
2018-10-12T09:32:39.764Z,8.10
2018-10-12T09:35:07.664Z,7.33
2018-10-12T09:37:35.579Z,7.77
2018-10-12T09:40:03.475Z,9.67
2018-10-12T09:42:31.393Z,5.67
2018-10-12T09:44:59.298Z,5.63
2018-10-12T09:47:27.212Z,9.77
2018-10-12T09:49:55.107Z,5.13
2018-10-12T09:52:22.995Z,8.00
2018-10-12T09:54:50.915Z,10.37
2018-10-12T09:57:25.702Z,5.42
2018-10-12T09:59:53.911Z,7.92
2018-10-12T10:02:26.899Z,4.70
2018-10-12T10:04:59.019Z,5.20
2018-10-12T10:07:27.417Z,4.83
2018-10-12T10:09:55.267Z,6.72
2018-10-12T10:12:23.151Z,2.72
2018-10-12T10:14:51.047Z,3.27
2018-10-12T10:17:18.932Z,3.90
2018-10-12T10:19:46.968Z,8.30
2018-10-12T10:22:14.865Z,6.37
2018-10-12T10:24:42.747Z,8.27
2018-10-12T10:27:10.964Z,5.47
2018-10-12T10:29:38.866Z,4.57
2018-10-12T10:32:06.846Z,6.27
2018-10-12T10:34:34.754Z,10.23
2018-10-12T10:37:02.671Z,4.67
2018-10-12T10:39:30.566Z,6.33
2018-10-12T10:41:58.483Z,3.83
2018-10-12T10:44:26.432Z,3.80
2018-10-12T10:46:54.423Z,3.10
2018-10-12T10:49:22.311Z,4.62
2018-10-12T10:51:50.202Z,5.67
2018-10-12T10:54:18.089Z,7.37
2018-10-12T10:56:45.998Z,5.07
2018-10-12T10:59:13.886Z,5.80
2018-10-12T11:01:41.767Z,6.93
2018-10-12T11:04:09.689Z,5.67
2018-10-12T11:06:37.575Z,3.37
2018-10-12T11:09:07.393Z,8.77
2018-10-12T11:11:35.298Z,7.67
2018-10-12T11:14:03.298Z,10.00
2018-10-12T11:16:31.163Z,6.27
2018-10-12T11:18:59.058Z,4.80
2018-10-12T11:21:27.086Z,6.60
2018-10-12T11:23:54.991Z,8.53
2018-10-12T11:26:22.928Z,8.50
2018-10-12T11:28:50.788Z,7.07
2018-10-12T11:31:18.768Z,6.47
2018-10-12T11:33:46.650Z,8.27
2018-10-12T11:36:20.067Z,5.40
2018-10-12T11:38:48.274Z,7.77
2018-10-12T11:41:16.272Z,5.53
2018-10-12T11:43:44.138Z,7.50
2018-10-12T11:46:12.094Z,8.43
2018-10-12T11:48:39.994Z,7.93
2018-10-12T11:51:07.882Z,5.77
2018-10-12T11:53:35.937Z,4.93
2018-10-12T11:56:03.833Z,6.93
2018-10-12T11:58:31.827Z,11.20
2018-10-12T12:00:59.797Z,4.30
2018-10-12T12:03:27.676Z,6.20
2018-10-12T12:05:55.571Z,5.93
2018-10-12T12:08:23.474Z,5.73
2018-10-12T12:10:51.378Z,10.50
2018-10-12T12:13:19.438Z,5.93
2018-10-12T12:15:47.321Z,7.27
2018-10-12T12:18:15.214Z,6.73
2018-10-12T12:20:43.114Z,7.30
2018-10-12T12:23:11.009Z,4.90
2018-10-12T12:25:38.906Z,7.47
2018-10-12T12:28:06.971Z,7.90
2018-10-12T12:30:34.879Z,7.83
2018-10-12T12:33:02.766Z,3.93
2018-10-12T12:35:31.072Z,10.37
2018-10-12T12:37:58.574Z,5.63
2018-10-12T12:40:26.463Z,5.53
2018-10-12T12:42:54.510Z,3.63
2018-10-12T12:45:22.422Z,7.63
2018-10-12T12:47:50.448Z,11.80
2018-10-12T12:50:18.239Z,9.07
2018-10-12T12:52:46.118Z,9.50
2018-10-12T12:55:14.004Z,3.67
2018-10-12T12:57:41.898Z,7.37
2018-10-12T13:00:09.819Z,8.80
2018-10-12T13:02:37.703Z,10.67
2018-10-12T13:05:05.599Z,3.87
2018-10-12T13:07:33.483Z,5.07
2018-10-12T13:10:02.439Z,7.43
2018-10-12T13:12:30.318Z,6.70
2018-10-12T13:14:58.207Z,6.53
2018-10-12T13:17:26.098Z,8.37
2018-10-12T13:19:54.075Z,4.63
2018-10-12T13:22:21.942Z,5.87
2018-10-12T13:24:49.873Z,7.83
2018-10-12T13:27:17.775Z,6.77
2018-10-12T13:29:45.662Z,7.13
2018-10-12T13:32:13.575Z,9.97
2018-10-12T13:34:41.464Z,8.13
2018-10-12T13:37:09.384Z,8.23
2018-10-12T13:39:37.287Z,4.93
2018-10-12T13:42:05.275Z,7.00
2018-10-12T13:44:33.155Z,3.87
2018-10-12T13:47:01.038Z,6.63
2018-10-12T13:49:28.922Z,4.13
2018-10-12T13:51:56.810Z,4.17
2018-10-12T13:54:24.801Z,3.30
2018-10-12T13:56:56.916Z,4.03
2018-10-12T13:59:25.188Z,4.50
2018-10-12T14:01:53.092Z,3.20
2018-10-12T14:04:21.003Z,4.93
2018-10-12T14:06:48.918Z,6.03
2018-10-12T14:09:17.074Z,6.13
2018-10-12T14:11:44.987Z,8.93
2018-10-12T14:14:12.865Z,11.33
2018-10-12T14:16:40.775Z,8.17
2018-10-12T14:19:08.839Z,5.03
2018-10-12T14:21:36.567Z,4.93
2018-10-12T14:24:04.487Z,3.70
2018-10-12T14:26:32.387Z,5.17
2018-10-12T14:29:00.291Z,3.57
2018-10-12T14:31:28.230Z,6.77
2018-10-12T14:33:56.244Z,5.03
2018-10-12T14:36:24.228Z,4.57
2018-10-12T14:38:52.122Z,5.57
2018-10-12T14:41:20.040Z,7.13
2018-10-12T14:43:48.271Z,5.03
2018-10-12T14:46:16.118Z,5.83
2018-10-12T14:48:44.106Z,3.50
2018-10-12T14:51:12.003Z,3.43
2018-10-12T14:53:39.890Z,3.60
2018-10-12T14:56:07.778Z,5.53
2018-10-12T14:58:35.695Z,5.30
2018-10-12T15:01:03.596Z,6.00
2018-10-12T15:03:31.477Z,5.47
2018-10-12T15:05:59.590Z,7.20
2018-10-12T15:08:27.469Z,6.33
2018-10-12T15:10:55.362Z,5.60
2018-10-12T15:13:23.257Z,8.20
2018-10-12T15:15:51.163Z,5.47
2018-10-12T15:18:19.051Z,2.80
2018-10-12T15:20:46.961Z,5.67
2018-10-12T15:23:14.850Z,9.70
2018-10-12T15:25:42.846Z,7.03
2018-10-12T15:28:10.622Z,6.57
2018-10-12T15:30:38.518Z,6.03
2018-10-12T15:33:06.395Z,4.17
2018-10-12T15:35:34.284Z,6.43
2018-10-12T15:38:02.212Z,7.10
2018-10-12T15:40:30.091Z,5.90
2018-10-12T15:42:58.055Z,4.70
2018-10-12T15:45:26.012Z,5.07
2018-10-12T15:47:54.003Z,5.07
2018-10-12T15:50:21.889Z,6.10
2018-10-12T15:52:49.774Z,5.83
2018-10-12T15:55:17.667Z,6.30
2018-10-12T15:57:45.563Z,5.47
2018-10-12T16:00:13.447Z,4.97
2018-10-12T16:02:41.367Z,5.90
2018-10-12T16:05:09.278Z,4.23
2018-10-12T16:07:37.174Z,4.10
2018-10-12T16:10:05.148Z,6.67
2018-10-12T16:12:33.171Z,4.83
2018-10-12T16:15:01.053Z,7.40
2018-10-12T16:17:28.946Z,4.60
2018-10-12T16:19:56.847Z,5.47
2018-10-12T16:22:24.762Z,5.57
2018-10-12T16:25:04.175Z,9.30
2018-10-12T16:27:32.059Z,5.07
2018-10-12T16:30:00.007Z,5.90
2018-10-12T16:32:27.976Z,5.00
2018-10-12T16:34:55.874Z,8.87
2018-10-12T16:37:23.787Z,7.03
2018-10-12T16:39:51.676Z,5.73
2018-10-12T16:42:19.615Z,5.17
2018-10-12T16:44:47.503Z,8.17
2018-10-12T16:47:15.424Z,6.67
2018-10-12T16:49:43.445Z,9.87
2018-10-12T16:52:11.326Z,7.33
2018-10-12T16:54:39.611Z,6.53
2018-10-12T16:57:07.506Z,7.10
2018-10-12T16:59:35.402Z,4.40
2018-10-12T17:02:03.326Z,6.70
2018-10-12T17:04:31.296Z,7.23
2018-10-12T17:06:59.146Z,5.63
2018-10-12T17:09:27.062Z,9.67
2018-10-12T17:11:56.010Z,6.67
2018-10-12T17:14:23.919Z,5.70
2018-10-12T17:16:51.826Z,8.83
2018-10-12T17:19:19.739Z,9.13
2018-10-12T17:21:47.670Z,5.73
2018-10-12T17:24:15.582Z,8.97
2018-10-12T17:26:43.505Z,4.67
2018-10-12T17:29:11.446Z,9.97
2018-10-12T17:31:39.342Z,4.10
2018-10-12T17:34:07.252Z,6.10
2018-10-12T17:36:35.148Z,11.50
2018-10-12T17:39:03.544Z,3.77
2018-10-12T17:41:31.491Z,7.10
2018-10-12T17:43:59.354Z,5.87
2018-10-12T17:46:27.254Z,6.37
2018-10-12T17:48:55.155Z,8.27
2018-10-12T17:51:23.063Z,5.97
2018-10-12T17:53:50.968Z,6.40
2018-10-12T17:56:18.869Z,6.53
2018-10-12T17:58:46.759Z,6.80
2018-10-12T18:01:14.638Z,6.77
2018-10-12T18:03:42.532Z,6.90
2018-10-12T18:06:10.443Z,10.63
2018-10-12T18:08:38.346Z,5.00
2018-10-12T18:11:06.331Z,7.40
2018-10-12T18:13:34.230Z,4.73
2018-10-12T18:16:02.128Z,11.47
2018-10-12T18:18:30.063Z,6.23
2018-10-12T18:20:57.938Z,7.77
2018-10-12T18:23:25.852Z,9.23
2018-10-12T18:25:53.818Z,8.43
2018-10-12T18:28:21.667Z,7.43
2018-10-12T18:30:49.755Z,8.93
2018-10-12T18:33:17.630Z,5.93
2018-10-12T18:35:45.515Z,9.67
2018-10-12T18:38:13.414Z,10.40
2018-10-12T18:40:41.322Z,10.53
2018-10-12T18:43:09.310Z,8.03
2018-10-12T18:45:37.202Z,7.93
2018-10-12T18:48:05.083Z,5.80
2018-10-12T18:50:33.017Z,11.77
2018-10-12T18:53:00.986Z,11.63
2018-10-12T18:55:28.961Z,9.10
2018-10-12T18:57:56.928Z,7.30
2018-10-12T19:00:24.935Z,7.30
2018-10-12T19:02:52.822Z,7.77
2018-10-12T19:05:20.727Z,4.50
2018-10-12T19:07:48.614Z,9.70
2018-10-12T19:10:16.539Z,14.10
2018-10-12T19:12:44.454Z,10.93
2018-10-12T19:15:12.342Z,5.27
2018-10-12T19:17:40.259Z,6.83
2018-10-12T19:20:08.372Z,9.50
2018-10-12T19:22:36.271Z,5.53
2018-10-12T19:25:04.195Z,7.63
2018-10-12T19:27:32.101Z,8.43
2018-10-12T19:30:00.019Z,6.43
2018-10-12T19:32:27.929Z,6.70
2018-10-12T19:34:55.840Z,10.07
2018-10-12T19:37:23.739Z,5.43
2018-10-12T19:39:51.659Z,8.23
2018-10-12T19:45:28.988Z,7.73
2018-10-12T19:47:56.948Z,9.43
2018-10-12T19:50:24.880Z,8.70
2018-10-12T19:52:52.876Z,7.10
2018-10-12T19:55:20.743Z,7.77
2018-10-12T19:57:48.662Z,9.47
2018-10-12T20:00:16.641Z,10.60
2018-10-12T20:02:44.520Z,9.33
2018-10-12T20:05:12.427Z,7.73
2018-10-12T20:07:40.375Z,9.07
2018-10-12T20:10:08.287Z,7.20
2018-10-12T20:12:36.216Z,13.13
2018-10-12T20:15:04.344Z,10.33
2018-10-12T20:17:32.249Z,11.87
2018-10-12T20:20:00.143Z,7.40
2018-10-12T20:22:28.070Z,7.43
2018-10-12T20:24:55.985Z,8.47
2018-10-12T20:27:23.892Z,6.20
2018-10-12T20:29:51.824Z,10.00
2018-10-12T20:32:19.743Z,9.93
2018-10-12T20:34:47.647Z,11.03
2018-10-12T20:37:15.540Z,8.07
2018-10-12T20:39:43.468Z,5.80
2018-10-12T20:42:11.408Z,6.87
2018-10-12T20:44:39.336Z,7.90
2018-10-12T20:47:07.524Z,8.37
2018-10-12T20:49:35.533Z,8.97
2018-10-12T20:52:03.446Z,9.13
2018-10-12T20:54:31.353Z,9.93
2018-10-12T20:56:59.275Z,8.03
2018-10-12T20:59:27.344Z,12.77
2018-10-12T21:01:55.366Z,5.50
2018-10-12T21:04:23.276Z,11.40
2018-10-12T21:06:51.184Z,6.20
2018-10-12T21:09:19.071Z,6.90
2018-10-12T21:11:46.968Z,13.20
2018-10-12T21:14:14.899Z,7.77
2018-10-12T21:16:42.800Z,11.93
2018-10-12T21:19:10.720Z,8.97
2018-10-12T21:21:38.632Z,9.07
2018-10-12T21:24:06.540Z,10.93
2018-10-12T21:26:34.516Z,8.07
2018-10-12T21:29:02.449Z,11.27
2018-10-12T21:31:30.385Z,8.47
2018-10-12T21:33:58.291Z,11.33
2018-10-12T21:36:26.248Z,9.87
2018-10-12T21:38:54.147Z,8.40
2018-10-12T21:41:22.064Z,11.93
2018-10-12T21:43:49.968Z,8.83
2018-10-12T21:46:17.901Z,8.27
2018-10-12T21:48:45.809Z,5.93
2018-10-12T21:51:13.744Z,10.80
2018-10-12T21:53:41.669Z,5.87
2018-10-12T21:56:09.571Z,6.13
2018-10-12T21:58:37.480Z,9.40
2018-10-12T22:01:05.987Z,8.63
2018-10-12T22:03:35.614Z,6.70
2018-10-12T22:06:03.774Z,9.20
2018-10-12T22:08:36.999Z,8.70
2018-10-12T22:11:05.652Z,9.13
2018-10-12T22:13:33.815Z,7.77
2018-10-12T22:16:01.742Z,8.17
2018-10-12T22:18:29.758Z,6.67
2018-10-12T22:20:57.651Z,5.97
2018-10-12T22:23:25.590Z,7.53
2018-10-12T22:25:53.752Z,9.60
2018-10-12T22:28:21.560Z,9.90
2018-10-12T22:30:49.460Z,8.20
2018-10-12T22:33:17.464Z,8.23
2018-10-12T22:35:45.340Z,8.10
2018-10-12T22:38:13.235Z,7.63
2018-10-12T22:40:41.169Z,7.93
2018-10-12T22:43:09.128Z,8.50
2018-10-12T22:45:37.023Z,10.23
2018-10-12T22:48:04.935Z,9.53
2018-10-12T22:50:32.855Z,7.23
2018-10-12T22:53:00.963Z,11.10
2018-10-12T22:55:28.867Z,8.77
2018-10-12T22:58:01.448Z,7.50
2018-10-12T23:00:30.536Z,9.60
2018-10-12T23:02:58.588Z,8.27
2018-10-12T23:05:26.840Z,8.63
2018-10-12T23:07:54.760Z,10.23
2018-10-12T23:10:23.252Z,10.70
2018-10-12T23:12:51.237Z,6.00
2018-10-12T23:15:19.127Z,12.07
2018-10-12T23:17:47.141Z,5.47
2018-10-12T23:20:15.051Z,15.27
2018-10-12T23:22:43.008Z,5.73
2018-10-12T23:25:10.909Z,8.00
2018-10-12T23:27:38.823Z,8.47
2018-10-12T23:30:07.617Z,7.43
2018-10-12T23:32:35.544Z,10.10
2018-10-12T23:35:03.441Z,12.07
2018-10-12T23:37:31.340Z,6.13
2018-10-12T23:39:59.635Z,11.23
2018-10-12T23:42:27.523Z,9.07
2018-10-12T23:44:55.435Z,6.67
2018-10-12T23:47:23.423Z,6.17
2018-10-12T23:49:51.280Z,11.87
2018-10-12T23:52:19.207Z,9.13
2018-10-12T23:54:47.378Z,7.67
2018-10-12T23:57:15.312Z,6.37
2018-10-12T23:59:43.222Z,10.77
